sensor_id;sensor_type;location;lat;lon;timestamp;P1;durP1;ratioP1;P2;durP2;ratioP2
58528;SDS011;44322;52.968;5.816;2023-04-03T00:00:02;2.67;;;1.30;;
58528;SDS011;44322;52.968;5.816;2023-04-03T00:02:31;2.00;;;1.50;;
58528;SDS011;44322;52.968;5.816;2023-04-03T00:04:57;2.10;;;1.30;;
58528;SDS011;44322;52.968;5.816;2023-04-03T00:07:22;3.53;;;1.40;;
58528;SDS011;44322;52.968;5.816;2023-04-03T00:09:48;4.43;;;1.70;;
58528;SDS011;44322;52.968;5.816;2023-04-03T00:12:13;3.28;;;1.27;;
58528;SDS011;44322;52.968;5.816;2023-04-03T00:14:40;2.72;;;1.40;;
58528;SDS011;44322;52.968;5.816;2023-04-03T00:17:06;2.10;;;1.40;;
58528;SDS011;44322;52.968;5.816;2023-04-03T00:19:31;2.35;;;1.30;;
58528;SDS011;44322;52.968;5.816;2023-04-03T00:21:57;4.13;;;1.25;;
58528;SDS011;44322;52.968;5.816;2023-04-03T00:24:23;2.83;;;1.02;;
58528;SDS011;44322;52.968;5.816;2023-04-03T00:26:48;3.30;;;1.27;;
58528;SDS011;44322;52.968;5.816;2023-04-03T00:29:14;2.13;;;1.40;;
58528;SDS011;44322;52.968;5.816;2023-04-03T00:31:40;2.47;;;1.27;;
58528;SDS011;44322;52.968;5.816;2023-04-03T00:34:05;2.20;;;1.50;;
58528;SDS011;44322;52.968;5.816;2023-04-03T00:36:31;2.47;;;1.45;;
58528;SDS011;44322;52.968;5.816;2023-04-03T00:38:56;2.10;;;1.33;;
58528;SDS011;44322;52.968;5.816;2023-04-03T00:41:22;2.67;;;1.23;;
58528;SDS011;44322;52.968;5.816;2023-04-03T00:43:48;2.25;;;1.15;;
58528;SDS011;44322;52.968;5.816;2023-04-03T00:46:13;2.47;;;1.67;;
58528;SDS011;44322;52.968;5.816;2023-04-03T00:48:40;2.15;;;1.20;;
58528;SDS011;44322;52.968;5.816;2023-04-03T00:51:09;2.70;;;1.13;;
58528;SDS011;44322;52.968;5.816;2023-04-03T00:53:39;2.63;;;1.40;;
58528;SDS011;44322;52.968;5.816;2023-04-03T00:56:13;3.20;;;1.00;;
58528;SDS011;44322;52.968;5.816;2023-04-03T01:01:11;3.03;;;1.40;;
58528;SDS011;44322;52.968;5.816;2023-04-03T01:03:38;1.63;;;1.00;;
58528;SDS011;44322;52.968;5.816;2023-04-03T01:06:04;4.25;;;1.20;;
58528;SDS011;44322;52.968;5.816;2023-04-03T01:08:30;4.50;;;1.65;;
58528;SDS011;44322;52.968;5.816;2023-04-03T01:10:56;2.65;;;1.30;;
58528;SDS011;44322;52.968;5.816;2023-04-03T01:13:25;1.70;;;1.13;;
58528;SDS011;44322;52.968;5.816;2023-04-03T01:15:55;3.03;;;1.17;;
58528;SDS011;44322;52.968;5.816;2023-04-03T01:18:25;2.00;;;1.02;;
58528;SDS011;44322;52.968;5.816;2023-04-03T01:23:51;2.25;;;1.23;;
58528;SDS011;44322;52.968;5.816;2023-04-03T01:26:22;3.55;;;1.30;;
58528;SDS011;44322;52.968;5.816;2023-04-03T01:28:48;3.75;;;1.20;;
58528;SDS011;44322;52.968;5.816;2023-04-03T01:31:16;2.85;;;1.13;;
58528;SDS011;44322;52.968;5.816;2023-04-03T01:33:46;1.42;;;0.90;;
58528;SDS011;44322;52.968;5.816;2023-04-03T01:36:20;2.67;;;1.00;;
58528;SDS011;44322;52.968;5.816;2023-04-03T01:41:17;3.53;;;1.33;;
58528;SDS011;44322;52.968;5.816;2023-04-03T01:43:44;2.03;;;1.08;;
58528;SDS011;44322;52.968;5.816;2023-04-03T01:46:10;3.80;;;1.15;;
58528;SDS011;44322;52.968;5.816;2023-04-03T01:48:36;2.40;;;1.10;;
58528;SDS011;44322;52.968;5.816;2023-04-03T01:51:01;2.10;;;1.20;;
58528;SDS011;44322;52.968;5.816;2023-04-03T01:53:27;3.63;;;1.30;;
58528;SDS011;44322;52.968;5.816;2023-04-03T01:55:53;2.20;;;1.00;;
58528;SDS011;44322;52.968;5.816;2023-04-03T01:58:19;1.38;;;1.00;;
58528;SDS011;44322;52.968;5.816;2023-04-03T02:00:46;2.38;;;1.30;;
58528;SDS011;44322;52.968;5.816;2023-04-03T02:03:11;2.60;;;1.23;;
58528;SDS011;44322;52.968;5.816;2023-04-03T02:05:37;1.77;;;0.82;;
58528;SDS011;44322;52.968;5.816;2023-04-03T02:08:04;2.10;;;1.40;;
58528;SDS011;44322;52.968;5.816;2023-04-03T02:10:30;3.42;;;1.20;;
58528;SDS011;44322;52.968;5.816;2023-04-03T02:12:56;2.47;;;1.10;;
58528;SDS011;44322;52.968;5.816;2023-04-03T02:15:21;1.92;;;1.10;;
58528;SDS011;44322;52.968;5.816;2023-04-03T02:17:47;1.98;;;1.00;;
58528;SDS011;44322;52.968;5.816;2023-04-03T02:20:13;2.22;;;1.13;;
58528;SDS011;44322;52.968;5.816;2023-04-03T02:22:38;5.90;;;1.25;;
58528;SDS011;44322;52.968;5.816;2023-04-03T02:25:04;4.82;;;1.20;;
58528;SDS011;44322;52.968;5.816;2023-04-03T02:27:30;3.55;;;1.35;;
58528;SDS011;44322;52.968;5.816;2023-04-03T02:29:56;2.30;;;1.20;;
58528;SDS011;44322;52.968;5.816;2023-04-03T02:32:22;3.22;;;0.90;;
58528;SDS011;44322;52.968;5.816;2023-04-03T02:34:48;1.63;;;0.80;;
58528;SDS011;44322;52.968;5.816;2023-04-03T02:37:14;2.70;;;1.00;;
58528;SDS011;44322;52.968;5.816;2023-04-03T02:39:41;2.45;;;1.20;;
58528;SDS011;44322;52.968;5.816;2023-04-03T02:42:07;2.53;;;1.10;;
58528;SDS011;44322;52.968;5.816;2023-04-03T02:44:33;3.35;;;1.60;;
58528;SDS011;44322;52.968;5.816;2023-04-03T02:46:58;2.20;;;1.45;;
58528;SDS011;44322;52.968;5.816;2023-04-03T02:49:24;3.72;;;1.42;;
58528;SDS011;44322;52.968;5.816;2023-04-03T02:51:50;5.00;;;1.60;;
58528;SDS011;44322;52.968;5.816;2023-04-03T02:54:16;3.40;;;1.63;;
58528;SDS011;44322;52.968;5.816;2023-04-03T02:56:46;4.20;;;1.70;;
58528;SDS011;44322;52.968;5.816;2023-04-03T02:59:12;4.32;;;1.40;;
58528;SDS011;44322;52.968;5.816;2023-04-03T03:04:06;5.68;;;1.80;;
58528;SDS011;44322;52.968;5.816;2023-04-03T03:06:32;5.50;;;1.50;;
58528;SDS011;44322;52.968;5.816;2023-04-03T03:08:57;2.97;;;1.60;;
58528;SDS011;44322;52.968;5.816;2023-04-03T03:11:23;4.35;;;1.90;;
58528;SDS011;44322;52.968;5.816;2023-04-03T03:13:48;3.45;;;1.90;;
58528;SDS011;44322;52.968;5.816;2023-04-03T03:16:14;3.63;;;1.77;;
58528;SDS011;44322;52.968;5.816;2023-04-03T03:18:40;2.95;;;2.00;;
58528;SDS011;44322;52.968;5.816;2023-04-03T03:21:06;5.22;;;2.55;;
58528;SDS011;44322;52.968;5.816;2023-04-03T03:23:31;6.10;;;2.63;;
58528;SDS011;44322;52.968;5.816;2023-04-03T03:25:59;2.63;;;1.98;;
58528;SDS011;44322;52.968;5.816;2023-04-03T03:28:26;2.80;;;2.00;;
58528;SDS011;44322;52.968;5.816;2023-04-03T03:30:51;4.18;;;2.00;;
58528;SDS011;44322;52.968;5.816;2023-04-03T03:33:18;2.92;;;2.10;;
58528;SDS011;44322;52.968;5.816;2023-04-03T03:35:44;6.18;;;2.10;;
58528;SDS011;44322;52.968;5.816;2023-04-03T03:38:10;6.10;;;2.63;;
58528;SDS011;44322;52.968;5.816;2023-04-03T03:40:36;6.25;;;2.30;;
58528;SDS011;44322;52.968;5.816;2023-04-03T03:43:02;4.47;;;2.28;;
58528;SDS011;44322;52.968;5.816;2023-04-03T03:45:28;4.25;;;2.42;;
58528;SDS011;44322;52.968;5.816;2023-04-03T03:47:55;6.80;;;2.10;;
58528;SDS011;44322;52.968;5.816;2023-04-03T03:50:21;5.97;;;2.28;;
58528;SDS011;44322;52.968;5.816;2023-04-03T03:52:48;4.88;;;2.70;;
58528;SDS011;44322;52.968;5.816;2023-04-03T03:55:13;6.25;;;2.17;;
58528;SDS011;44322;52.968;5.816;2023-04-03T03:57:40;6.72;;;2.38;;
58528;SDS011;44322;52.968;5.816;2023-04-03T04:00:05;5.32;;;2.55;;
58528;SDS011;44322;52.968;5.816;2023-04-03T04:02:40;7.28;;;2.95;;
58528;SDS011;44322;52.968;5.816;2023-04-03T04:05:07;4.35;;;2.38;;
58528;SDS011;44322;52.968;5.816;2023-04-03T04:07:33;6.75;;;3.20;;
58528;SDS011;44322;52.968;5.816;2023-04-03T04:10:00;7.07;;;3.05;;
58528;SDS011;44322;52.968;5.816;2023-04-03T04:12:26;5.43;;;2.90;;
58528;SDS011;44322;52.968;5.816;2023-04-03T04:14:52;3.92;;;2.67;;
58528;SDS011;44322;52.968;5.816;2023-04-03T04:17:18;6.25;;;3.28;;
58528;SDS011;44322;52.968;5.816;2023-04-03T04:19:44;6.05;;;3.08;;
58528;SDS011;44322;52.968;5.816;2023-04-03T04:22:10;9.27;;;3.70;;
58528;SDS011;44322;52.968;5.816;2023-04-03T04:24:35;6.20;;;3.10;;
58528;SDS011;44322;52.968;5.816;2023-04-03T04:27:02;5.93;;;3.08;;
58528;SDS011;44322;52.968;5.816;2023-04-03T04:32:01;4.68;;;2.22;;
58528;SDS011;44322;52.968;5.816;2023-04-03T04:34:30;3.95;;;2.22;;
58528;SDS011;44322;52.968;5.816;2023-04-03T04:36:56;4.60;;;1.90;;
58528;SDS011;44322;52.968;5.816;2023-04-03T04:39:22;3.85;;;1.65;;
58528;SDS011;44322;52.968;5.816;2023-04-03T04:41:48;4.60;;;2.03;;
58528;SDS011;44322;52.968;5.816;2023-04-03T04:44:14;6.18;;;2.20;;
58528;SDS011;44322;52.968;5.816;2023-04-03T04:46:39;6.60;;;2.67;;
58528;SDS011;44322;52.968;5.816;2023-04-03T04:49:07;6.43;;;2.45;;
58528;SDS011;44322;52.968;5.816;2023-04-03T04:51:33;5.53;;;2.42;;
58528;SDS011;44322;52.968;5.816;2023-04-03T04:53:59;6.88;;;2.50;;
58528;SDS011;44322;52.968;5.816;2023-04-03T04:56:25;4.47;;;2.40;;
58528;SDS011;44322;52.968;5.816;2023-04-03T04:58:53;7.00;;;3.15;;
58528;SDS011;44322;52.968;5.816;2023-04-03T05:01:21;6.72;;;2.50;;
58528;SDS011;44322;52.968;5.816;2023-04-03T05:04:09;6.95;;;2.10;;
58528;SDS011;44322;52.968;5.816;2023-04-03T05:06:35;6.45;;;2.60;;
58528;SDS011;44322;52.968;5.816;2023-04-03T05:09:03;4.85;;;2.20;;
58528;SDS011;44322;52.968;5.816;2023-04-03T05:11:31;5.00;;;2.25;;
58528;SDS011;44322;52.968;5.816;2023-04-03T05:13:56;6.07;;;2.15;;
58528;SDS011;44322;52.968;5.816;2023-04-03T05:16:23;4.82;;;2.20;;
58528;SDS011;44322;52.968;5.816;2023-04-03T05:18:50;5.07;;;2.15;;
58528;SDS011;44322;52.968;5.816;2023-04-03T05:21:19;5.50;;;2.30;;
58528;SDS011;44322;52.968;5.816;2023-04-03T05:23:47;4.32;;;2.35;;
58528;SDS011;44322;52.968;5.816;2023-04-03T05:26:13;5.85;;;2.65;;
58528;SDS011;44322;52.968;5.816;2023-04-03T05:28:39;7.10;;;2.22;;
58528;SDS011;44322;52.968;5.816;2023-04-03T05:31:05;4.85;;;2.30;;
58528;SDS011;44322;52.968;5.816;2023-04-03T05:33:35;6.88;;;2.58;;
58528;SDS011;44322;52.968;5.816;2023-04-03T05:36:02;6.55;;;2.70;;
58528;SDS011;44322;52.968;5.816;2023-04-03T05:38:30;3.33;;;2.10;;
58528;SDS011;44322;52.968;5.816;2023-04-03T05:40:56;4.68;;;2.33;;
58528;SDS011;44322;52.968;5.816;2023-04-03T05:43:22;8.00;;;2.58;;
58528;SDS011;44322;52.968;5.816;2023-04-03T05:45:49;5.30;;;2.65;;
58528;SDS011;44322;52.968;5.816;2023-04-03T05:48:15;4.05;;;2.40;;
58528;SDS011;44322;52.968;5.816;2023-04-03T05:50:41;5.93;;;2.63;;
58528;SDS011;44322;52.968;5.816;2023-04-03T05:55:42;6.18;;;2.97;;
58528;SDS011;44322;52.968;5.816;2023-04-03T05:58:08;4.15;;;2.50;;
58528;SDS011;44322;52.968;5.816;2023-04-03T06:00:34;5.38;;;2.90;;
58528;SDS011;44322;52.968;5.816;2023-04-03T06:03:01;5.15;;;3.03;;
58528;SDS011;44322;52.968;5.816;2023-04-03T06:05:30;7.07;;;3.00;;
58528;SDS011;44322;52.968;5.816;2023-04-03T06:07:56;7.22;;;3.30;;
58528;SDS011;44322;52.968;5.816;2023-04-03T06:10:22;7.50;;;3.38;;
58528;SDS011;44322;52.968;5.816;2023-04-03T06:12:49;9.30;;;3.33;;
58528;SDS011;44322;52.968;5.816;2023-04-03T06:15:15;5.78;;;3.60;;
58528;SDS011;44322;52.968;5.816;2023-04-03T06:17:42;11.80;;;4.70;;
58528;SDS011;44322;52.968;5.816;2023-04-03T06:20:08;7.38;;;3.88;;
58528;SDS011;44322;52.968;5.816;2023-04-03T06:22:34;9.05;;;3.92;;
58528;SDS011;44322;52.968;5.816;2023-04-03T06:25:01;5.68;;;3.22;;
58528;SDS011;44322;52.968;5.816;2023-04-03T06:27:26;8.23;;;3.13;;
58528;SDS011;44322;52.968;5.816;2023-04-03T06:29:52;4.65;;;2.80;;
58528;SDS011;44322;52.968;5.816;2023-04-03T06:32:18;10.55;;;3.35;;
58528;SDS011;44322;52.968;5.816;2023-04-03T06:34:43;7.07;;;3.50;;
58528;SDS011;44322;52.968;5.816;2023-04-03T06:37:20;7.47;;;3.28;;
58528;SDS011;44322;52.968;5.816;2023-04-03T06:39:47;5.20;;;2.50;;
58528;SDS011;44322;52.968;5.816;2023-04-03T06:42:12;5.28;;;2.90;;
58528;SDS011;44322;52.968;5.816;2023-04-03T06:44:47;5.75;;;2.90;;
58528;SDS011;44322;52.968;5.816;2023-04-03T06:47:13;9.88;;;3.17;;
58528;SDS011;44322;52.968;5.816;2023-04-03T06:49:39;6.13;;;2.88;;
58528;SDS011;44322;52.968;5.816;2023-04-03T06:52:05;6.88;;;3.00;;
58528;SDS011;44322;52.968;5.816;2023-04-03T06:54:31;6.00;;;3.05;;
58528;SDS011;44322;52.968;5.816;2023-04-03T06:56:57;9.07;;;3.10;;
58528;SDS011;44322;52.968;5.816;2023-04-03T06:59:22;6.05;;;3.33;;
58528;SDS011;44322;52.968;5.816;2023-04-03T07:01:48;5.68;;;2.95;;
58528;SDS011;44322;52.968;5.816;2023-04-03T07:04:14;7.28;;;2.70;;
58528;SDS011;44322;52.968;5.816;2023-04-03T07:06:40;5.35;;;2.30;;
58528;SDS011;44322;52.968;5.816;2023-04-03T07:09:07;5.63;;;2.90;;
58528;SDS011;44322;52.968;5.816;2023-04-03T07:11:32;6.82;;;2.90;;
58528;SDS011;44322;52.968;5.816;2023-04-03T07:13:58;8.52;;;2.85;;
58528;SDS011;44322;52.968;5.816;2023-04-03T07:16:24;7.20;;;2.88;;
58528;SDS011;44322;52.968;5.816;2023-04-03T07:18:49;7.10;;;2.67;;
58528;SDS011;44322;52.968;5.816;2023-04-03T07:21:15;7.18;;;2.65;;
58528;SDS011;44322;52.968;5.816;2023-04-03T07:23:40;5.32;;;2.03;;
58528;SDS011;44322;52.968;5.816;2023-04-03T07:26:06;5.07;;;2.65;;
58528;SDS011;44322;52.968;5.816;2023-04-03T07:28:33;4.65;;;2.47;;
58528;SDS011;44322;52.968;5.816;2023-04-03T07:31:00;5.47;;;2.50;;
58528;SDS011;44322;52.968;5.816;2023-04-03T07:33:27;6.10;;;2.70;;
58528;SDS011;44322;52.968;5.816;2023-04-03T07:35:53;7.72;;;2.40;;
58528;SDS011;44322;52.968;5.816;2023-04-03T07:38:19;5.50;;;1.95;;
58528;SDS011;44322;52.968;5.816;2023-04-03T07:40:46;6.10;;;2.30;;
58528;SDS011;44322;52.968;5.816;2023-04-03T07:43:12;4.50;;;2.00;;
58528;SDS011;44322;52.968;5.816;2023-04-03T07:45:38;7.40;;;2.78;;
58528;SDS011;44322;52.968;5.816;2023-04-03T07:48:04;6.38;;;2.58;;
58528;SDS011;44322;52.968;5.816;2023-04-03T07:50:30;4.32;;;2.40;;
58528;SDS011;44322;52.968;5.816;2023-04-03T07:52:57;6.05;;;2.33;;
58528;SDS011;44322;52.968;5.816;2023-04-03T07:55:23;5.18;;;2.05;;
58528;SDS011;44322;52.968;5.816;2023-04-03T07:57:49;5.85;;;2.28;;
58528;SDS011;44322;52.968;5.816;2023-04-03T08:00:15;3.50;;;1.88;;
58528;SDS011;44322;52.968;5.816;2023-04-03T08:02:44;3.75;;;1.70;;
58528;SDS011;44322;52.968;5.816;2023-04-03T08:05:16;4.30;;;1.90;;
58528;SDS011;44322;52.968;5.816;2023-04-03T08:07:45;5.75;;;1.80;;
58528;SDS011;44322;52.968;5.816;2023-04-03T08:10:11;4.32;;;1.92;;
58528;SDS011;44322;52.968;5.816;2023-04-03T08:12:37;6.57;;;2.33;;
58528;SDS011;44322;52.968;5.816;2023-04-03T08:15:03;5.15;;;1.80;;
58528;SDS011;44322;52.968;5.816;2023-04-03T08:17:29;5.32;;;2.10;;
58528;SDS011;44322;52.968;5.816;2023-04-03T08:19:55;4.13;;;1.50;;
58528;SDS011;44322;52.968;5.816;2023-04-03T08:22:20;4.75;;;1.83;;
58528;SDS011;44322;52.968;5.816;2023-04-03T08:24:46;5.45;;;1.55;;
58528;SDS011;44322;52.968;5.816;2023-04-03T08:27:11;3.38;;;1.42;;
58528;SDS011;44322;52.968;5.816;2023-04-03T08:29:37;2.33;;;1.65;;
58528;SDS011;44322;52.968;5.816;2023-04-03T08:32:03;1.67;;;1.50;;
58528;SDS011;44322;52.968;5.816;2023-04-03T08:34:30;3.85;;;1.42;;
58528;SDS011;44322;52.968;5.816;2023-04-03T08:36:56;3.67;;;1.50;;
58528;SDS011;44322;52.968;5.816;2023-04-03T08:39:21;2.55;;;1.23;;
58528;SDS011;44322;52.968;5.816;2023-04-03T08:41:47;4.82;;;1.70;;
58528;SDS011;44322;52.968;5.816;2023-04-03T08:52:11;3.13;;;1.40;;
58528;SDS011;44322;52.968;5.816;2023-04-03T08:57:33;2.53;;;1.27;;
58528;SDS011;44322;52.968;5.816;2023-04-03T09:00:06;3.33;;;1.30;;
58528;SDS011;44322;52.968;5.816;2023-04-03T09:02:43;1.90;;;1.20;;
58528;SDS011;44322;52.968;5.816;2023-04-03T09:05:16;3.63;;;1.20;;
58528;SDS011;44322;52.968;5.816;2023-04-03T09:07:47;2.55;;;1.10;;
58528;SDS011;44322;52.968;5.816;2023-04-03T09:10:15;3.28;;;0.98;;
58528;SDS011;44322;52.968;5.816;2023-04-03T09:12:53;3.03;;;1.00;;
58528;SDS011;44322;52.968;5.816;2023-04-03T09:15:25;1.77;;;0.90;;
58528;SDS011;44322;52.968;5.816;2023-04-03T09:26:05;2.17;;;0.88;;
58528;SDS011;44322;52.968;5.816;2023-04-03T09:28:35;3.03;;;1.00;;
58528;SDS011;44322;52.968;5.816;2023-04-03T09:31:09;3.10;;;0.80;;
58528;SDS011;44322;52.968;5.816;2023-04-03T09:33:44;2.28;;;1.10;;
58528;SDS011;44322;52.968;5.816;2023-04-03T09:36:10;1.52;;;0.80;;
58528;SDS011;44322;52.968;5.816;2023-04-03T09:38:36;1.92;;;0.73;;
58528;SDS011;44322;52.968;5.816;2023-04-03T09:41:06;2.10;;;1.05;;
58528;SDS011;44322;52.968;5.816;2023-04-03T09:43:37;2.38;;;0.77;;
58528;SDS011;44322;52.968;5.816;2023-04-03T09:49:04;2.85;;;0.80;;
58528;SDS011;44322;52.968;5.816;2023-04-03T09:51:30;1.27;;;0.90;;
58528;SDS011;44322;52.968;5.816;2023-04-03T09:53:57;1.95;;;0.73;;
58528;SDS011;44322;52.968;5.816;2023-04-03T09:56:29;2.20;;;0.73;;
58528;SDS011;44322;52.968;5.816;2023-04-03T10:01:28;1.55;;;0.60;;
58528;SDS011;44322;52.968;5.816;2023-04-03T10:04:12;1.95;;;0.68;;
58528;SDS011;44322;52.968;5.816;2023-04-03T10:06:45;2.03;;;0.90;;
58528;SDS011;44322;52.968;5.816;2023-04-03T10:14:26;1.70;;;0.80;;
58528;SDS011;44322;52.968;5.816;2023-04-03T10:19:33;1.30;;;0.60;;
58528;SDS011;44322;52.968;5.816;2023-04-03T10:27:59;1.23;;;0.60;;
58528;SDS011;44322;52.968;5.816;2023-04-03T10:33:09;2.35;;;1.00;;
58528;SDS011;44322;52.968;5.816;2023-04-03T10:38:40;1.60;;;0.60;;
58528;SDS011;44322;52.968;5.816;2023-04-03T10:44:04;1.30;;;0.68;;
58528;SDS011;44322;52.968;5.816;2023-04-03T10:46:38;1.83;;;0.80;;
58528;SDS011;44322;52.968;5.816;2023-04-03T10:56:52;1.60;;;0.75;;
58528;SDS011;44322;52.968;5.816;2023-04-03T11:02:40;0.73;;;0.50;;
58528;SDS011;44322;52.968;5.816;2023-04-03T11:04:53;1.83;;;0.52;;
58528;SDS011;44322;52.968;5.816;2023-04-03T11:07:23;2.15;;;1.10;;
58528;SDS011;44322;52.968;5.816;2023-04-03T11:10:02;1.45;;;0.50;;
58528;SDS011;44322;52.968;5.816;2023-04-03T11:12:34;1.77;;;0.55;;
58528;SDS011;44322;52.968;5.816;2023-04-03T11:15:04;1.05;;;0.50;;
58528;SDS011;44322;52.968;5.816;2023-04-03T11:17:33;2.28;;;0.70;;
58528;SDS011;44322;52.968;5.816;2023-04-03T11:23:08;1.08;;;0.60;;
58528;SDS011;44322;52.968;5.816;2023-04-03T11:25:38;1.48;;;0.80;;
58528;SDS011;44322;52.968;5.816;2023-04-03T11:28:11;2.17;;;0.60;;
58528;SDS011;44322;52.968;5.816;2023-04-03T11:36:26;2.00;;;0.60;;
58528;SDS011;44322;52.968;5.816;2023-04-03T11:38:56;1.40;;;0.45;;
58528;SDS011;44322;52.968;5.816;2023-04-03T11:41:28;1.17;;;0.70;;
58528;SDS011;44322;52.968;5.816;2023-04-03T11:44:05;2.58;;;0.60;;
58528;SDS011;44322;52.968;5.816;2023-04-03T12:05:48;2.17;;;0.68;;
58528;SDS011;44322;52.968;5.816;2023-04-03T12:08:27;1.33;;;0.60;;
58528;SDS011;44322;52.968;5.816;2023-04-03T12:16:20;1.38;;;0.73;;
58528;SDS011;44322;52.968;5.816;2023-04-03T12:21:20;1.08;;;0.70;;
58528;SDS011;44322;52.968;5.816;2023-04-03T12:29:28;2.10;;;0.60;;
58528;SDS011;44322;52.968;5.816;2023-04-03T12:46:19;1.65;;;0.82;;
58528;SDS011;44322;52.968;5.816;2023-04-03T12:48:51;2.95;;;0.73;;
58528;SDS011;44322;52.968;5.816;2023-04-03T12:51:29;2.50;;;0.70;;
58528;SDS011;44322;52.968;5.816;2023-04-03T12:54:00;1.83;;;0.98;;
58528;SDS011;44322;52.968;5.816;2023-04-03T12:56:38;2.70;;;0.82;;
58528;SDS011;44322;52.968;5.816;2023-04-03T12:59:14;1.83;;;0.70;;
58528;SDS011;44322;52.968;5.816;2023-04-03T13:01:41;1.15;;;0.80;;
58528;SDS011;44322;52.968;5.816;2023-04-03T13:04:06;1.77;;;0.90;;
58528;SDS011;44322;52.968;5.816;2023-04-03T13:06:42;1.38;;;0.75;;
58528;SDS011;44322;52.968;5.816;2023-04-03T13:09:19;3.08;;;1.13;;
58528;SDS011;44322;52.968;5.816;2023-04-03T13:11:56;2.25;;;0.93;;
58528;SDS011;44322;52.968;5.816;2023-04-03T13:14:24;3.13;;;0.80;;
58528;SDS011;44322;52.968;5.816;2023-04-03T13:16:53;2.88;;;0.70;;
58528;SDS011;44322;52.968;5.816;2023-04-03T13:19:19;1.05;;;0.80;;
58528;SDS011;44322;52.968;5.816;2023-04-03T13:21:44;3.00;;;1.35;;
58528;SDS011;44322;52.968;5.816;2023-04-03T13:24:10;2.40;;;1.00;;
58528;SDS011;44322;52.968;5.816;2023-04-03T13:26:36;2.28;;;1.00;;
58528;SDS011;44322;52.968;5.816;2023-04-03T13:29:04;2.15;;;1.00;;
58528;SDS011;44322;52.968;5.816;2023-04-03T13:31:34;3.95;;;0.95;;
58528;SDS011;44322;52.968;5.816;2023-04-03T13:34:11;1.33;;;1.17;;
58528;SDS011;44322;52.968;5.816;2023-04-03T13:37:00;2.47;;;1.10;;
58528;SDS011;44322;52.968;5.816;2023-04-03T13:39:26;2.17;;;0.90;;
58528;SDS011;44322;52.968;5.816;2023-04-03T13:41:57;2.08;;;0.90;;
58528;SDS011;44322;52.968;5.816;2023-04-03T13:49:39;4.03;;;1.30;;
58528;SDS011;44322;52.968;5.816;2023-04-03T13:54:47;6.00;;;1.30;;
58528;SDS011;44322;52.968;5.816;2023-04-03T13:57:17;2.13;;;1.20;;
58528;SDS011;44322;52.968;5.816;2023-04-03T13:59:43;2.50;;;0.93;;
58528;SDS011;44322;52.968;5.816;2023-04-03T14:07:08;2.17;;;1.30;;
58528;SDS011;44322;52.968;5.816;2023-04-03T14:09:34;2.95;;;1.33;;
58528;SDS011;44322;52.968;5.816;2023-04-03T14:12:02;3.28;;;1.30;;
58528;SDS011;44322;52.968;5.816;2023-04-03T14:14:32;4.47;;;1.42;;
58528;SDS011;44322;52.968;5.816;2023-04-03T14:17:00;2.55;;;1.10;;
58528;SDS011;44322;52.968;5.816;2023-04-03T14:19:29;2.25;;;1.05;;
58528;SDS011;44322;52.968;5.816;2023-04-03T14:21:59;3.72;;;1.30;;
58528;SDS011;44322;52.968;5.816;2023-04-03T14:24:26;3.35;;;1.50;;
58528;SDS011;44322;52.968;5.816;2023-04-03T14:26:53;3.70;;;1.30;;
58528;SDS011;44322;52.968;5.816;2023-04-03T14:29:20;3.17;;;1.25;;
58528;SDS011;44322;52.968;5.816;2023-04-03T14:31:51;4.03;;;1.20;;
58528;SDS011;44322;52.968;5.816;2023-04-03T14:34:16;1.77;;;1.38;;
58528;SDS011;44322;52.968;5.816;2023-04-03T14:36:43;2.83;;;1.00;;
58528;SDS011;44322;52.968;5.816;2023-04-03T14:39:18;2.13;;;1.00;;
58528;SDS011;44322;52.968;5.816;2023-04-03T14:41:45;3.70;;;1.35;;
58528;SDS011;44322;52.968;5.816;2023-04-03T14:44:11;2.85;;;1.23;;
58528;SDS011;44322;52.968;5.816;2023-04-03T14:46:38;2.28;;;1.30;;
58528;SDS011;44322;52.968;5.816;2023-04-03T14:49:09;3.35;;;1.50;;
58528;SDS011;44322;52.968;5.816;2023-04-03T14:51:39;2.13;;;1.05;;
58528;SDS011;44322;52.968;5.816;2023-04-03T14:54:05;2.85;;;1.30;;
58528;SDS011;44322;52.968;5.816;2023-04-03T14:56:35;2.42;;;1.45;;
58528;SDS011;44322;52.968;5.816;2023-04-03T14:59:01;3.28;;;1.60;;
58528;SDS011;44322;52.968;5.816;2023-04-03T15:01:27;3.25;;;1.52;;
58528;SDS011;44322;52.968;5.816;2023-04-03T15:03:53;4.30;;;1.70;;
58528;SDS011;44322;52.968;5.816;2023-04-03T15:06:19;2.63;;;1.10;;
58528;SDS011;44322;52.968;5.816;2023-04-03T15:08:45;3.95;;;1.38;;
58528;SDS011;44322;52.968;5.816;2023-04-03T15:11:11;2.35;;;1.17;;
58528;SDS011;44322;52.968;5.816;2023-04-03T15:13:38;3.13;;;1.20;;
58528;SDS011;44322;52.968;5.816;2023-04-03T15:16:12;3.67;;;1.40;;
58528;SDS011;44322;52.968;5.816;2023-04-03T15:18:44;4.40;;;1.60;;
58528;SDS011;44322;52.968;5.816;2023-04-03T15:21:10;2.35;;;1.20;;
58528;SDS011;44322;52.968;5.816;2023-04-03T15:23:35;2.33;;;1.33;;
58528;SDS011;44322;52.968;5.816;2023-04-03T15:26:01;3.58;;;1.70;;
58528;SDS011;44322;52.968;5.816;2023-04-03T15:28:40;2.03;;;1.50;;
58528;SDS011;44322;52.968;5.816;2023-04-03T15:31:06;2.28;;;1.30;;
58528;SDS011;44322;52.968;5.816;2023-04-03T15:33:32;2.40;;;1.42;;
58528;SDS011;44322;52.968;5.816;2023-04-03T15:35:59;2.45;;;1.40;;
58528;SDS011;44322;52.968;5.816;2023-04-03T15:38:25;4.03;;;1.67;;
58528;SDS011;44322;52.968;5.816;2023-04-03T15:40:51;3.38;;;1.13;;
58528;SDS011;44322;52.968;5.816;2023-04-03T15:43:16;2.72;;;1.20;;
58528;SDS011;44322;52.968;5.816;2023-04-03T15:45:42;1.85;;;1.42;;
58528;SDS011;44322;52.968;5.816;2023-04-03T15:48:09;3.65;;;1.48;;
58528;SDS011;44322;52.968;5.816;2023-04-03T15:50:35;3.58;;;1.40;;
58528;SDS011;44322;52.968;5.816;2023-04-03T15:53:00;2.75;;;1.48;;
58528;SDS011;44322;52.968;5.816;2023-04-03T15:55:29;1.65;;;1.00;;
58528;SDS011;44322;52.968;5.816;2023-04-03T15:57:55;1.65;;;1.35;;
58528;SDS011;44322;52.968;5.816;2023-04-03T16:00:22;4.28;;;1.30;;
58528;SDS011;44322;52.968;5.816;2023-04-03T16:02:50;3.95;;;1.20;;
58528;SDS011;44322;52.968;5.816;2023-04-03T16:05:17;2.17;;;1.30;;
58528;SDS011;44322;52.968;5.816;2023-04-03T16:07:44;1.63;;;1.10;;
58528;SDS011;44322;52.968;5.816;2023-04-03T16:10:11;3.17;;;1.10;;
58528;SDS011;44322;52.968;5.816;2023-04-03T16:12:37;3.67;;;1.25;;
58528;SDS011;44322;52.968;5.816;2023-04-03T16:15:03;2.22;;;1.35;;
58528;SDS011;44322;52.968;5.816;2023-04-03T16:17:30;3.53;;;1.42;;
58528;SDS011;44322;52.968;5.816;2023-04-03T16:19:57;3.70;;;1.50;;
58528;SDS011;44322;52.968;5.816;2023-04-03T16:22:23;3.47;;;1.48;;
58528;SDS011;44322;52.968;5.816;2023-04-03T16:24:50;2.72;;;1.23;;
58528;SDS011;44322;52.968;5.816;2023-04-03T16:27:16;2.00;;;1.13;;
58528;SDS011;44322;52.968;5.816;2023-04-03T16:29:42;2.05;;;1.30;;
58528;SDS011;44322;52.968;5.816;2023-04-03T16:32:07;2.13;;;1.40;;
58528;SDS011;44322;52.968;5.816;2023-04-03T16:34:33;1.73;;;1.17;;
58528;SDS011;44322;52.968;5.816;2023-04-03T16:36:59;3.33;;;1.20;;
58528;SDS011;44322;52.968;5.816;2023-04-03T16:39:25;3.05;;;1.30;;
58528;SDS011;44322;52.968;5.816;2023-04-03T16:41:51;3.90;;;1.33;;
58528;SDS011;44322;52.968;5.816;2023-04-03T16:44:17;4.00;;;1.60;;
58528;SDS011;44322;52.968;5.816;2023-04-03T16:46:42;2.40;;;1.35;;
58528;SDS011;44322;52.968;5.816;2023-04-03T16:49:08;4.00;;;1.50;;
58528;SDS011;44322;52.968;5.816;2023-04-03T16:51:33;1.52;;;1.10;;
58528;SDS011;44322;52.968;5.816;2023-04-03T16:53:59;2.67;;;1.50;;
58528;SDS011;44322;52.968;5.816;2023-04-03T16:56:25;1.80;;;1.10;;
58528;SDS011;44322;52.968;5.816;2023-04-03T16:58:53;4.70;;;1.42;;
58528;SDS011;44322;52.968;5.816;2023-04-03T17:01:20;3.13;;;1.48;;
58528;SDS011;44322;52.968;5.816;2023-04-03T17:03:46;1.77;;;1.00;;
58528;SDS011;44322;52.968;5.816;2023-04-03T17:06:14;1.67;;;0.90;;
58528;SDS011;44322;52.968;5.816;2023-04-03T17:08:42;2.95;;;1.10;;
58528;SDS011;44322;52.968;5.816;2023-04-03T17:11:09;3.17;;;1.13;;